Flight EZE1552

  • Submitted By: Dave Hardy
  • Departure Airport: Arlanda (ESSA)
  • Arrival Airport: Humberside International (EGNJ)
  • Aircraft: SB20 (G-CDEA)
  • Flight Time: 02.40
  • Date Submitted: 03/21/2009
  • Status: Accepted
Flight Details
Gross Revenue:
(24 load / £ 0.00 per unit
£ 0.00
Fuel Cost:
(10030 fuel used @ 0 / unit)
£ 0.00

Flight Details

  • VATAWARE Link: -

Additional Log Information:

View Log

[2009/06/07 07:38:00]
Flight IATA:EZE1552
Pilot Number:EZE0001
Company ICAO:EZE
Aircraft Type:SB20
PAX:24
Aircraft Registration:SB20
Departing Airport: ESSA
Destination Airport: EGNJ
Online: VATSIM
Route:ARS N623 BEDLA N866 INVOL UN866 RAM UN581 EVAKI UN866 GOLUM UL975 LIBSO
Flight Level:28000
07:38 Zero fuel Weight: 40330 Lbs, Fuel Weight: 10244 Lbs
07:38 VATSIM:ESSA 211220Z 30011KT CAVOK 05/M02 Q1015 NOSIG
07:38 VATSIM:EGNJ 211220Z 32006KT 290V360 5000 HZ NSC 14/04 Q1029
07:53 Parking Brakes off
07:53 Com1 Freq=118.40
08:03 VR= 141 Knots
08:03 V2= 145 Knots
08:03 Take-off
08:03 Take off Weight: 50183 Lbs
08:03 Wind: 297 @ 010 Knots Heading: 006
08:03 POS N59 39 10 E017 55 08
08:03 N11 114 N12 114
08:03 Gear Up: 145 Knots
08:03 Flaps: at 145 Knots
08:09 Flaps:Up at 160 Knots
08:18 Wind:328@063 Knots Heading: 251 Ground Speed: 210 Knots Altitude 26604 ft
08:18 TOC
08:18 Fuel Weight: 8883 Lb
08:33 Wind:334@050 Knots Heading: 274 Ground Speed: 267 Knots Altitude 28110 ft
08:48 Wind:330@042 Knots Heading: 231 Ground Speed: 385 Knots Altitude 28198 ft
08:48 Com1 Freq=123.40
08:48 Com1 Freq=122.40
08:48 Com1 Freq=122.62
08:48 Com1 Freq=122.80
09:03 Wind:334@038 Knots Heading: 230 Ground Speed: 376 Knots Altitude 28231 ft
09:18 Wind:337@030 Knots Heading: 271 Ground Speed: 352 Knots Altitude 28510 ft
09:33 Wind:264@027 Knots Heading: 250 Ground Speed: 343 Knots Altitude 28428 ft
09:48 Wind:264@027 Knots Heading: 262 Ground Speed: 344 Knots Altitude 28448 ft
09:56 TOD
09:56 Fuel Weight: 1300 Lb
09:57 TOC
09:57 Fuel Weight: 1272 Lb
09:58 TOD
09:58 Fuel Weight: 1247 Lb
10:03 Wind:270@015 Knots Heading: 228 Ground Speed: 357 Knots Altitude 19744 ft
10:11 Flaps: at 211 Knots
10:13 Flaps: at 202 Knots
10:18 Wind:298@007 Knots Heading: 094 Ground Speed: 176 Knots Altitude 1998 ft
10:25 Gear Down: 164 Knots
10:25 Flaps: at 156 Knots
10:27 TouchDown:Rate -545 ft/min Speed: 134 Knots
10:28 Flaps: at 9 Knots
10:28 VATSIM:EGNJ 211520Z 32009KT 5000 NSC 16/06 Q1028
10:28 Land
10:28 Wind:295@007 Knots
10:28 Heading: 205
10:28 Flight Duration: 02:25
10:28 Landing Weight: 40113 Lbs
10:28 POS N53 34 24 W000 21 04
10:33 Parking brakes on
10:33 Block to Block Duration: 02:40
10:33 Final Fuel: 213 Lbls
10:33 Spent Fuel: 10030 Lbls
10:33 Flight Length: 752 NM
10:33 TOD Land Length: 115 NM

Route Map